默认 日期 大小 文件数 浏览量 最新下载 xml
pyaar磁力链接相关资源由用户搜索指令自动获取,结果来源于网络,本站不存储任何资料,亦不承担任何责任,请于24小时内删除,搜索到649个磁力,用时1ms。
    {"hum tumse.mp4": 454037324, "Humko Tumse Pyaar Hai.2006.DVDRip.XviD-NoGrp.srt": 93327}
创建时间: 2022-04-24 05:51:01 大小:433.09 MB 文件数量:2 热度:3 最近下载:2025-02-06 06:06:08
    {"Haan.Maine.Bhi.Pyaar.Kiya.2002.DVDRip.BY.tamercome.srt": 158904, "Haan Maine Bhi Pyaar Kiya (HD) Hindi Full Movie - Akshay Kumar - Abhishek Bachchan - Krisma Kapoor.mp4": 1921415399}
创建时间: 2022-04-24 17:21:22 大小:1.79 GB 文件数量:2 热度:9 最近下载:2025-09-20 21:02:23
    {"Jab.Pyaar.Kisise.Hota.Hai.1998.WEBHD.1080p.x264.AAC.HunSub-vTk.ro.srt": 143119, "Jab Pyaar Kisisi Hota Hai {HD} - Salman Khan - Twinkle Khanna - Johnny Lever- (With Eng Subtitles).mp4": 1870261693}
创建时间: 2022-04-24 19:38:02 大小:1.74 GB 文件数量:2 热度:4 最近下载:2025-02-12 16:35:03
    {"yeh rastey hain pyar ke.mp4": 1843007294, "Yeh Raaste Hain Pyaar Ke.srt": 115567}
创建时间: 2022-04-24 21:01:15 大小:1.72 GB 文件数量:2 热度:3 最近下载:2025-01-10 06:17:03
    {"Pyaar To Hona Hi Tha [1998]Hindi BluRay 1080 x264 AC3 5.1...Hon3y.mkv": 1056602196, "Pyaar To Hona Hi Tha [1998]Hindi BluRay 1080 x264 AC3 5.1...Hon3y.srt": 155769}
创建时间: 2022-04-25 22:21:06 大小:1007.8 MB 文件数量:2 热度:4 最近下载:2025-02-16 02:39:07
    {"hum tumse.mp4": 454037324, "Humko Tumse Pyaar Hai.2006.DVDRip.XviD-NoGrp.srt": 93327}
创建时间: 2022-05-09 18:27:48 大小:433.09 MB 文件数量:2 热度:4 最近下载:2025-01-07 00:18:06
    ... xRG Release.avi": 1565306880, "Thoda Pyaar Thoda Magic 2008 DVD xRG ... Release.idx": 517993, "Thoda Pyaar Thoda Magic 2008 DVD xRG ... Release.sub": 45041664, "Thoda Pyaar Thoda Magic 2008 DVD xRG ...
创建时间: 2022-05-13 12:59:14 大小:1.5 GB 文件数量:5 热度:4 最近下载:2025-01-26 02:12:01
    {"Yeh Raaste Hain Pyaar Ke [2001].mp4": 1691454709, "Yeh.Raaste.Hain.Pyaar.Ke.2001.ro.srt": 136017, "Yeh Raaste Hain Pyaar Ke [2001].2001..Eng.srt": 130657}
创建时间: 2022-05-18 14:22:38 大小:1.58 GB 文件数量:3 热度:2 最近下载:2025-02-16 02:33:06
    ... 的尸检报告Pyaar.Ka.Punchnama.2011.BluRay.720p ...
创建时间: 2022-06-08 20:39:13 大小:3.2 GB 文件数量:7 热度:18 最近下载:2025-09-17 21:06:06
    {"Pehli Nazar Ka Pehla Pyaar RO.srt": 110464, "Pehli Nazar Ka Pehla Pyaar ENG.srt": 105726, "Pehli Nazar Ka Pehla Pyaar [2003].mp4": 6873870643}
创建时间: 2022-06-09 22:23:29 大小:6.4 GB 文件数量:3 热度:4 最近下载:2025-01-09 13:47:14
    {"Thori Setting Thora Pyaar.mkv": 3996316431, "[TGx]Downloaded from torrentgalaxy.to .txt": 585}
创建时间: 2022-06-13 20:41:25 大小:3.72 GB 文件数量:2 热度:6 最近下载:2025-03-17 17:34:01
    {"Pyaar Ka Punchnama 2_2015_HINDI_HD_18112017_1014_(LR).mp4!": 1729098642}
创建时间: 2022-06-16 21:23:00 大小:1.61 GB 文件数量:1 热度:5 最近下载:2025-09-01 13:28:02
    {"ho jaata hai pyaar RO.srt": 131947, "ho jaata hai pyaar ENG.srt": 127565, "Ho Jaata Hai Pyaar [2005].........RARE MOVIE[Paul].mp4": 6291928979}
创建时间: 2022-06-16 21:23:39 大小:5.86 GB 文件数量:3 热度:9 最近下载:2025-09-18 22:39:11
    {"Pyaar Koi Khel Nahin {HD} 1999 ro.srt": 169912, "Pyaar Koi Khel Nahin [HD] 1999 Eng.srt": 160539, "Pyaar Koi Khel Nahin {HD} 1999 Hindi.1080p.Bluray.x264.DTS-HDMA-5.1.....[Paul].mp4": 2175201243}
创建时间: 2022-06-19 22:20:20 大小:2.03 GB 文件数量:3 热度:3 最近下载:2025-01-23 00:58:07
    {"01. Sally - JFLA.mp3": 7896219, "02. Sally - Vrille.mp3": 8459423, "04. Sally - PLUS LE TEMPS.mp3": 8345544, "03. Sally - CORPS À CORPS.mp3": 8633936, "05. Sally - PUISQU'IL FAUT.mp3": 7694574, "06. Sally - ROULETTE RUSSE.mp3": 7246313}
创建时间: 2022-06-22 06:57:59 大小:46.04 MB 文件数量:6 热度:3 最近下载:2025-01-04 22:57:09
    {"Yeh Raaste Hain Pyaar Ke.avi": 1474719744, "Yeh Raaste Hain Pyaar Ke.srt": 86576}
创建时间: 2022-06-24 08:37:20 大小:1.37 GB 文件数量:2 热度:3 最近下载:2025-01-10 05:35:02
    {"SAMPLE.mp4": 12973367, "Kis Kisko Pyaar Karu (2015) HINDI 720p WEBHD x264 ACC ESuB - DDL.mp4": 1007861216, "Kis Kisko Pyaar Karu (2015) HINDI 720p WEBHD x264 ACC ESuB - DDL.srt": 186720}
创建时间: 2022-06-25 16:04:48 大小:973.72 MB 文件数量:3 热度:5 最近下载:2025-03-30 22:58:04
    {"Sample.mkv": 25976736, "Pyaar to Hona Hi Tha (1998) 1080p WEBRip x265 Hindi DD2.0 - SP3LL.mkv": 3760153878}
创建时间: 2022-08-14 16:54:39 大小:3.53 GB 文件数量:2 热度:4 最近下载:2025-03-01 21:34:04
    ... , "Vikkymaxx.gif": 12825, "Kis Kisko Pyaar Karoon (2015)Desi ScrRip x264 ...
创建时间: 2022-08-17 20:28:35 大小:706.69 MB 文件数量:22 热度:4 最近下载:2025-09-01 12:38:04
    {"Hon3yHD.com.txt": 39, "Torrent seeded from www.ultraseedbox.com.txt": 40, "Pyaar Ishq Aur Mohabbat 2001 Hindi 720p DvDRip x264 AC3 5.1...Hon3y.mkv": 3220650459, "Pyaar Ishq Aur Mohabbat 2001 Hindi 720p DvDRip x264 AC3 5.1...Hon3y.srt": 115704}
创建时间: 2022-09-02 05:18:52 大小:3 GB 文件数量:4 热度:3 最近下载:2025-01-10 04:38:01